createdAt,value
2016-09-08T00:00:48.041Z,23.86
2016-09-08T00:01:47.674Z,23.83
2016-09-08T00:02:47.921Z,23.91
2016-09-08T00:03:47.553Z,23.86
2016-09-08T00:04:47.806Z,23.84
2016-09-08T00:05:47.440Z,23.81
2016-09-08T00:06:47.383Z,23.84
2016-09-08T00:07:47.642Z,23.86
2016-09-08T00:08:47.261Z,23.88
2016-09-08T00:09:47.205Z,23.91
2016-09-08T00:10:47.154Z,23.8
2016-09-08T00:11:47.086Z,23.78
2016-09-08T00:12:47.033Z,23.84
2016-09-08T00:13:47.283Z,23.78
2016-09-08T00:14:46.915Z,23.86
2016-09-08T00:15:46.854Z,23.84
2016-09-08T00:16:46.789Z,23.86
2016-09-08T00:17:46.736Z,23.84
2016-09-08T00:18:46.677Z,23.81
2016-09-08T00:19:46.614Z,23.86
2016-09-08T00:20:46.567Z,23.87
2016-09-08T00:21:46.520Z,23.8
2016-09-08T00:22:46.442Z,23.8
2016-09-08T00:23:46.378Z,23.8
2016-09-08T00:24:46.319Z,23.81
2016-09-08T00:25:46.585Z,23.87
2016-09-08T00:26:46.534Z,23.83
2016-09-08T00:27:46.148Z,23.76
2016-09-08T00:28:46.084Z,23.84
2016-09-08T00:29:46.049Z,23.81
2016-09-08T00:30:46.276Z,23.77
2016-09-08T00:31:45.913Z,23.86
2016-09-08T00:32:45.864Z,23.83
2016-09-08T00:33:45.795Z,23.83
2016-09-08T00:34:45.738Z,23.8
2016-09-08T00:35:45.681Z,23.78
2016-09-08T00:36:45.623Z,23.83
2016-09-08T00:37:45.556Z,23.81
2016-09-08T00:38:45.800Z,23.81
2016-09-08T00:39:45.437Z,23.84
2016-09-08T00:40:45.380Z,23.84
2016-09-08T00:41:45.623Z,23.78
2016-09-08T00:42:45.260Z,23.81
2016-09-08T00:43:45.206Z,23.83
2016-09-08T00:44:45.468Z,23.83
2016-09-08T00:45:45.084Z,23.8
2016-09-08T00:46:45.026Z,23.78
2016-09-08T00:47:45.049Z,23.78
2016-09-08T00:48:44.910Z,23.83
2016-09-08T00:49:44.849Z,23.86
2016-09-08T00:50:44.790Z,23.8
2016-09-08T00:51:44.733Z,23.8
2016-09-08T00:52:44.998Z,23.83
2016-09-08T00:53:44.927Z,23.8
2016-09-08T00:54:44.559Z,23.77
2016-09-08T00:55:44.851Z,23.81
2016-09-08T00:56:44.749Z,23.8
2016-09-08T00:57:44.387Z,23.81
2016-09-08T00:58:44.319Z,23.83
2016-09-08T00:59:44.271Z,23.81
2016-09-08T01:00:44.203Z,23.78
2016-09-08T01:01:44.144Z,23.78
2016-09-08T01:02:44.391Z,23.84
2016-09-08T01:03:44.027Z,23.87
2016-09-08T01:04:43.967Z,23.8
2016-09-08T01:05:43.910Z,23.8
2016-09-08T01:06:43.848Z,23.83
2016-09-08T01:07:43.822Z,23.8
2016-09-08T01:08:43.726Z,23.84
2016-09-08T01:09:43.913Z,23.83
2016-09-08T01:10:43.921Z,23.78
2016-09-08T01:11:43.553Z,23.78
2016-09-08T01:12:43.500Z,23.8
2016-09-08T01:13:43.437Z,23.81
2016-09-08T01:14:43.382Z,23.83
2016-09-08T01:15:43.326Z,23.8
2016-09-08T01:16:43.264Z,23.78
2016-09-08T01:17:43.219Z,23.76
2016-09-08T01:18:43.153Z,23.77
2016-09-08T01:19:43.086Z,23.74
2016-09-08T01:20:43.025Z,23.77
2016-09-08T01:21:42.974Z,23.78
2016-09-08T01:22:42.910Z,23.77
2016-09-08T01:23:42.852Z,23.78
2016-09-08T01:24:42.790Z,23.78
2016-09-08T01:25:42.743Z,23.77
2016-09-08T01:26:42.675Z,23.74
2016-09-08T01:27:42.614Z,23.77
2016-09-08T01:28:42.555Z,23.74
2016-09-08T01:29:42.495Z,23.74
2016-09-08T01:30:42.439Z,23.76
2016-09-08T01:31:42.379Z,23.81
2016-09-08T01:32:42.624Z,23.77
2016-09-08T01:33:42.265Z,23.73
2016-09-08T01:34:42.200Z,23.78
2016-09-08T01:35:42.753Z,23.74
2016-09-08T01:36:42.086Z,23.71
2016-09-08T01:37:42.023Z,23.69
2016-09-08T01:38:41.963Z,23.76
2016-09-08T01:39:41.905Z,23.73
2016-09-08T01:40:41.853Z,23.76
2016-09-08T01:41:41.787Z,23.71
2016-09-08T01:42:42.041Z,23.74
2016-09-08T01:43:41.672Z,23.73
2016-09-08T01:44:41.611Z,23.76
2016-09-08T01:45:41.563Z,23.71
2016-09-08T01:46:41.493Z,23.74
2016-09-08T01:47:41.441Z,23.74
2016-09-08T01:48:41.375Z,23.73
2016-09-08T01:49:41.316Z,23.71
2016-09-08T01:50:41.254Z,23.74
2016-09-08T01:51:41.199Z,23.74
2016-09-08T01:52:41.139Z,23.74
2016-09-08T01:53:41.090Z,23.71
2016-09-08T01:54:41.026Z,23.68
2016-09-08T01:55:40.966Z,23.76
2016-09-08T01:56:40.900Z,23.66
2016-09-08T01:57:40.847Z,23.69
2016-09-08T01:58:40.782Z,23.74
2016-09-08T01:59:40.728Z,23.71
2016-09-08T02:00:40.970Z,23.74
2016-09-08T02:01:40.611Z,23.73
2016-09-08T02:02:40.558Z,23.77
2016-09-08T02:03:40.491Z,23.73
2016-09-08T02:04:40.442Z,23.68
2016-09-08T02:05:40.375Z,23.73
2016-09-08T02:06:40.317Z,23.69
2016-09-08T02:07:40.262Z,23.74
2016-09-08T02:08:40.201Z,23.68
2016-09-08T02:09:40.143Z,23.71
2016-09-08T02:10:40.077Z,23.66
2016-09-08T02:11:40.024Z,23.71
2016-09-08T02:12:39.962Z,23.66
2016-09-08T02:13:39.910Z,23.69
2016-09-08T02:14:39.843Z,23.71
2016-09-08T02:15:39.785Z,23.71
2016-09-08T02:16:39.727Z,23.74
2016-09-08T02:17:39.665Z,23.65
2016-09-08T02:18:41.648Z,23.68
2016-09-08T02:19:39.846Z,23.68
2016-09-08T02:20:39.793Z,23.65
2016-09-08T02:21:39.434Z,23.69
2016-09-08T02:22:39.375Z,23.71
2016-09-08T02:23:39.314Z,23.68
2016-09-08T02:24:39.257Z,23.71
2016-09-08T02:25:39.201Z,23.65
2016-09-08T02:26:39.142Z,23.71
2016-09-08T02:27:39.084Z,23.66
2016-09-08T02:28:39.031Z,23.59
2016-09-08T02:29:38.960Z,23.61
2016-09-08T02:30:38.901Z,23.65
2016-09-08T02:31:38.846Z,23.56
2016-09-08T02:32:38.782Z,23.61
2016-09-08T02:33:38.723Z,23.51
2016-09-08T02:34:38.665Z,23.62
2016-09-08T02:35:38.606Z,23.59
2016-09-08T02:36:38.548Z,23.62
2016-09-08T02:37:38.488Z,23.63
2016-09-08T02:38:38.730Z,23.62
2016-09-08T02:39:38.370Z,23.62
2016-09-08T02:40:38.313Z,23.65
2016-09-08T02:41:38.253Z,23.62
2016-09-08T02:42:38.190Z,23.66
2016-09-08T02:43:38.136Z,23.62
2016-09-08T02:44:38.074Z,23.62
2016-09-08T02:45:38.018Z,23.63
2016-09-08T02:46:37.952Z,23.62
2016-09-08T02:47:37.899Z,23.61
2016-09-08T02:48:37.840Z,23.62
2016-09-08T02:49:37.782Z,23.68
2016-09-08T02:50:38.346Z,23.61
2016-09-08T02:51:37.663Z,23.65
2016-09-08T02:52:37.604Z,23.62
2016-09-08T02:53:37.549Z,23.66
2016-09-08T02:54:37.496Z,23.68
2016-09-08T02:55:37.429Z,23.63
2016-09-08T02:56:37.366Z,23.61
2016-09-08T02:57:37.309Z,23.68
2016-09-08T02:58:37.248Z,23.63
2016-09-08T02:59:37.192Z,23.62
2016-09-08T03:00:37.142Z,23.65
2016-09-08T03:01:37.073Z,23.69
2016-09-08T03:02:37.017Z,23.63
2016-09-08T03:03:36.955Z,23.66
2016-09-08T03:04:36.896Z,23.59
2016-09-08T03:05:36.845Z,23.62
2016-09-08T03:06:36.784Z,23.59
2016-09-08T03:07:36.719Z,23.62
2016-09-08T03:08:36.659Z,23.59
2016-09-08T03:09:36.908Z,23.58
2016-09-08T03:10:36.545Z,23.61
2016-09-08T03:11:36.486Z,23.62
2016-09-08T03:12:36.424Z,23.58
2016-09-08T03:13:36.665Z,23.59
2016-09-08T03:14:36.309Z,23.58
2016-09-08T03:15:36.251Z,23.59
2016-09-08T03:16:36.185Z,23.55
2016-09-08T03:17:36.438Z,23.55
2016-09-08T03:18:36.073Z,23.59
2016-09-08T03:19:36.012Z,23.61
2016-09-08T03:20:35.954Z,23.54
2016-09-08T03:21:35.893Z,23.59
2016-09-08T03:22:36.136Z,23.54
2016-09-08T03:23:35.789Z,23.48
2016-09-08T03:24:35.715Z,23.59
2016-09-08T03:25:35.656Z,23.59
2016-09-08T03:26:35.599Z,23.48
2016-09-08T03:27:35.534Z,23.48
2016-09-08T03:28:35.681Z,23.51
2016-09-08T03:29:35.418Z,23.54
2016-09-08T03:30:35.360Z,23.48
2016-09-08T03:31:35.298Z,23.58
2016-09-08T03:32:35.243Z,23.65
2016-09-08T03:33:35.182Z,23.55
2016-09-08T03:34:35.125Z,23.51
2016-09-08T03:35:35.065Z,23.48
2016-09-08T03:36:35.004Z,23.55
2016-09-08T03:37:34.951Z,23.48
2016-09-08T03:38:34.891Z,23.5
2016-09-08T03:39:34.830Z,23.48
2016-09-08T03:40:35.077Z,23.5
2016-09-08T03:41:34.711Z,23.5
2016-09-08T03:42:34.654Z,23.48
2016-09-08T03:43:34.596Z,23.48
2016-09-08T03:44:34.848Z,23.51
2016-09-08T03:45:34.476Z,23.55
2016-09-08T03:46:34.418Z,23.48
2016-09-08T03:47:34.359Z,23.48
2016-09-08T03:48:34.304Z,23.55
2016-09-08T03:49:34.242Z,23.44
2016-09-08T03:50:34.181Z,23.56
2016-09-08T03:51:34.130Z,23.46
2016-09-08T03:52:34.069Z,23.5
2016-09-08T03:53:34.007Z,23.56
2016-09-08T03:54:33.942Z,23.54
2016-09-08T03:55:33.886Z,23.55
2016-09-08T03:56:34.136Z,23.55
2016-09-08T03:57:33.766Z,23.54
2016-09-08T03:58:33.711Z,23.58
2016-09-08T03:59:33.654Z,23.55
2016-09-08T04:00:33.597Z,23.5
2016-09-08T04:01:33.537Z,23.43
2016-09-08T04:02:33.473Z,23.43
2016-09-08T04:03:33.420Z,23.51
2016-09-08T04:04:33.356Z,23.44
2016-09-08T04:05:33.294Z,23.43
2016-09-08T04:06:33.245Z,23.44
2016-09-08T04:07:33.486Z,23.46
2016-09-08T04:08:33.121Z,23.4
2016-09-08T04:09:33.072Z,23.51
2016-09-08T04:10:33.010Z,23.43
2016-09-08T04:11:32.942Z,23.43
2016-09-08T04:12:32.881Z,23.46
2016-09-08T04:13:32.825Z,23.61
2016-09-08T04:14:32.769Z,23.55
2016-09-08T04:15:32.703Z,23.55
2016-09-08T04:16:32.647Z,23.51
2016-09-08T04:17:32.587Z,23.55
2016-09-08T04:18:32.526Z,23.54
2016-09-08T04:19:32.479Z,23.51
2016-09-08T04:20:32.411Z,23.54
2016-09-08T04:21:32.355Z,23.58
2016-09-08T04:22:32.290Z,23.5
2016-09-08T04:23:32.531Z,23.54
2016-09-08T04:24:32.174Z,23.5
2016-09-08T04:25:32.112Z,23.56
2016-09-08T04:26:32.370Z,23.56
2016-09-08T04:27:32.004Z,23.54
2016-09-08T04:28:31.940Z,23.56
2016-09-08T04:29:31.877Z,23.51
2016-09-08T04:30:31.816Z,23.56
2016-09-08T04:31:31.776Z,23.54
2016-09-08T04:32:31.695Z,23.5
2016-09-08T04:33:31.643Z,23.5
2016-09-08T04:34:31.583Z,23.56
2016-09-08T04:35:31.530Z,23.48
2016-09-08T04:36:31.772Z,23.54
2016-09-08T04:37:31.407Z,23.48
2016-09-08T04:38:31.348Z,23.51
2016-09-08T04:39:31.329Z,23.58
2016-09-08T04:40:31.642Z,23.44
2016-09-08T04:41:31.165Z,23.54
2016-09-08T04:42:31.115Z,23.51
2016-09-08T04:43:31.056Z,23.44
2016-09-08T04:44:30.992Z,23.54
2016-09-08T04:45:30.941Z,23.56
2016-09-08T04:46:30.872Z,23.48
2016-09-08T04:47:30.814Z,23.51
2016-09-08T04:48:30.749Z,23.54
2016-09-08T04:49:30.701Z,23.55
2016-09-08T04:50:30.634Z,23.46
2016-09-08T04:51:30.582Z,23.51
2016-09-08T04:52:30.519Z,23.46
2016-09-08T04:53:30.461Z,23.46
2016-09-08T04:54:30.402Z,23.59
2016-09-08T04:55:30.355Z,23.51
2016-09-08T04:56:30.284Z,23.44
2016-09-08T04:57:30.222Z,23.43
2016-09-08T04:58:30.166Z,23.44
2016-09-08T04:59:30.115Z,23.54
2016-09-08T05:00:30.094Z,23.48
2016-09-08T05:01:30.292Z,23.48
2016-09-08T05:02:29.929Z,23.51
2016-09-08T05:03:30.172Z,23.41
2016-09-08T05:04:30.112Z,23.48
2016-09-08T05:05:29.750Z,23.41
2016-09-08T05:06:29.992Z,23.47
2016-09-08T05:07:29.632Z,23.48
2016-09-08T05:08:29.573Z,23.41
2016-09-08T05:09:29.517Z,23.48
2016-09-08T05:10:29.454Z,23.41
2016-09-08T05:11:29.404Z,23.43
2016-09-08T05:12:29.336Z,23.46
2016-09-08T05:13:29.290Z,23.46
2016-09-08T05:14:29.220Z,23.44
2016-09-08T05:15:29.160Z,23.43
2016-09-08T05:16:29.105Z,23.4
2016-09-08T05:17:29.042Z,23.4
2016-09-08T05:18:29.286Z,23.44
2016-09-08T05:19:28.934Z,23.39
2016-09-08T05:20:28.864Z,23.46
2016-09-08T05:21:28.810Z,23.44
2016-09-08T05:22:28.750Z,23.44
2016-09-08T05:23:28.690Z,23.43
2016-09-08T05:24:28.629Z,23.46
2016-09-08T05:25:28.574Z,23.44
2016-09-08T05:26:28.511Z,23.46
2016-09-08T05:27:28.453Z,23.44
2016-09-08T05:28:28.392Z,23.48
2016-09-08T05:29:28.335Z,23.5
2016-09-08T05:30:28.272Z,23.48
2016-09-08T05:31:28.215Z,23.48
2016-09-08T05:32:28.359Z,23.44
2016-09-08T05:33:28.098Z,23.44
2016-09-08T05:34:28.044Z,23.4
2016-09-08T05:35:27.975Z,23.37
2016-09-08T05:36:27.920Z,23.4
2016-09-08T05:37:27.868Z,23.39
2016-09-08T05:38:27.802Z,23.37
2016-09-08T05:39:27.742Z,23.44
2016-09-08T05:40:27.986Z,23.4
2016-09-08T05:41:27.627Z,23.41
2016-09-08T05:42:27.869Z,23.36
2016-09-08T05:43:27.503Z,23.37
2016-09-08T05:44:27.445Z,23.37
2016-09-08T05:45:27.387Z,23.36
2016-09-08T05:46:27.626Z,23.37
2016-09-08T05:47:27.264Z,23.36
2016-09-08T05:48:27.205Z,23.4
2016-09-08T05:49:27.154Z,23.41
2016-09-08T05:50:27.094Z,23.31
2016-09-08T05:51:27.033Z,23.39
2016-09-08T05:52:26.973Z,23.28
2016-09-08T05:53:26.919Z,23.34
2016-09-08T05:54:27.162Z,23.34
2016-09-08T05:55:26.792Z,23.37
2016-09-08T05:56:26.741Z,23.39
2016-09-08T05:57:26.990Z,23.31
2016-09-08T05:58:26.623Z,23.36
2016-09-08T05:59:26.563Z,23.39
2016-09-08T06:00:26.900Z,23.37
2016-09-08T06:01:26.443Z,23.41
2016-09-08T06:02:26.403Z,23.36
2016-09-08T06:03:26.631Z,23.32
2016-09-08T06:04:26.263Z,23.36
2016-09-08T06:05:26.210Z,23.36
2016-09-08T06:06:26.147Z,23.41
2016-09-08T06:07:26.152Z,23.39
2016-09-08T06:08:26.026Z,23.36
2016-09-08T06:09:25.976Z,23.37
2016-09-08T06:10:26.212Z,23.31
2016-09-08T06:11:25.856Z,23.37
2016-09-08T06:12:25.796Z,23.36
2016-09-08T06:13:25.734Z,23.36
2016-09-08T06:14:25.671Z,23.37
2016-09-08T06:15:25.616Z,23.46
2016-09-08T06:16:25.562Z,23.36
2016-09-08T06:17:25.494Z,23.36
2016-09-08T06:18:25.440Z,23.34
2016-09-08T06:19:31.046Z,23.28
2016-09-08T06:20:25.373Z,23.37
2016-09-08T06:21:25.254Z,23.36
2016-09-08T06:22:25.203Z,23.34
2016-09-08T06:23:25.138Z,23.36
2016-09-08T06:24:25.082Z,23.36
2016-09-08T06:25:25.323Z,23.37
2016-09-08T06:26:24.971Z,23.4
2016-09-08T06:27:24.904Z,23.36
2016-09-08T06:28:25.158Z,23.37
2016-09-08T06:29:24.785Z,23.32
2016-09-08T06:30:24.727Z,23.39
2016-09-08T06:31:24.666Z,23.37
2016-09-08T06:32:24.608Z,23.39
2016-09-08T06:33:24.559Z,23.46
2016-09-08T06:34:24.487Z,23.46
2016-09-08T06:35:24.433Z,23.44
2016-09-08T06:36:24.687Z,23.39
2016-09-08T06:37:24.304Z,23.37
2016-09-08T06:38:24.552Z,23.46
2016-09-08T06:39:24.195Z,23.48
2016-09-08T06:40:24.132Z,23.44
2016-09-08T06:41:24.076Z,23.44
2016-09-08T06:42:24.013Z,23.31
2016-09-08T06:43:23.961Z,23.46
2016-09-08T06:44:23.906Z,23.46
2016-09-08T06:45:23.847Z,23.44
2016-09-08T06:46:23.776Z,23.43
2016-09-08T06:47:24.024Z,23.46
2016-09-08T06:48:23.975Z,23.44
2016-09-08T06:49:23.602Z,23.44
2016-09-08T06:50:23.545Z,23.47
2016-09-08T06:51:23.482Z,23.44
2016-09-08T06:52:23.433Z,23.4
2016-09-08T06:53:23.374Z,23.46
2016-09-08T06:54:23.316Z,23.43
2016-09-08T06:55:23.561Z,23.43
2016-09-08T06:56:23.494Z,23.36
2016-09-08T06:57:23.142Z,23.47
2016-09-08T06:58:23.073Z,23.4
2016-09-08T06:59:23.621Z,23.46
2016-09-08T07:00:22.964Z,23.41
2016-09-08T07:01:23.006Z,23.48
2016-09-08T07:02:22.836Z,23.46
2016-09-08T07:03:22.775Z,23.41
2016-09-08T07:04:23.029Z,23.43
2016-09-08T07:05:22.692Z,23.44
2016-09-08T07:06:22.605Z,23.46
2016-09-08T07:07:22.844Z,23.46
2016-09-08T07:08:22.479Z,23.47
2016-09-08T07:09:22.427Z,23.48
2016-09-08T07:10:22.677Z,23.46
2016-09-08T07:11:22.301Z,23.46
2016-09-08T07:12:22.766Z,23.48
2016-09-08T07:13:22.184Z,23.48
2016-09-08T07:14:22.134Z,23.5
2016-09-08T07:15:22.079Z,23.47
2016-09-08T07:16:22.001Z,23.44
2016-09-08T07:17:22.258Z,23.46
2016-09-08T07:18:21.886Z,23.48
2016-09-08T07:19:21.827Z,23.48
2016-09-08T07:20:21.774Z,23.4
2016-09-08T07:21:21.712Z,23.47
2016-09-08T07:22:21.656Z,23.48
2016-09-08T07:23:21.831Z,23.46
2016-09-08T07:24:21.542Z,23.41
2016-09-08T07:25:21.474Z,23.41
2016-09-08T07:26:21.423Z,23.43
2016-09-08T07:27:21.689Z,23.44
2016-09-08T07:28:21.304Z,23.48
2016-09-08T07:29:21.258Z,23.44
2016-09-08T07:30:21.178Z,23.48
2016-09-08T07:31:21.121Z,23.48
2016-09-08T07:32:21.123Z,23.46
2016-09-08T07:33:21.306Z,23.48
2016-09-08T07:34:20.943Z,23.4
2016-09-08T07:35:20.899Z,23.44
2016-09-08T07:36:20.833Z,23.44
2016-09-08T07:37:20.776Z,23.44
2016-09-08T07:38:20.940Z,23.44
2016-09-08T07:39:20.657Z,23.44
2016-09-08T07:40:20.597Z,23.58
2016-09-08T07:41:20.539Z,23.44
2016-09-08T07:42:20.477Z,23.48
2016-09-08T07:43:20.924Z,23.41
2016-09-08T07:44:20.674Z,23.46
2016-09-08T07:45:20.296Z,23.47
2016-09-08T07:46:20.555Z,23.54
2016-09-08T07:47:20.496Z,23.41
2016-09-08T07:48:20.127Z,23.55
2016-09-08T07:49:20.062Z,23.55
2016-09-08T07:50:20.019Z,23.54
2016-09-08T07:51:20.266Z,23.46
2016-09-08T07:52:19.887Z,23.41
2016-09-08T07:53:19.822Z,23.54
2016-09-08T07:54:19.767Z,23.41
2016-09-08T07:55:19.706Z,23.55
2016-09-08T07:56:19.990Z,23.56
2016-09-08T07:57:19.590Z,23.58
2016-09-08T07:58:19.527Z,23.56
2016-09-08T07:59:19.775Z,23.58
2016-09-08T08:00:19.418Z,23.46
2016-09-08T08:01:19.664Z,23.55
2016-09-08T08:02:19.613Z,23.55
2016-09-08T08:03:19.738Z,23.54
2016-09-08T08:04:19.182Z,23.58
2016-09-08T08:05:19.422Z,23.55
2016-09-08T08:06:19.055Z,23.55
2016-09-08T08:07:19.010Z,23.58
2016-09-08T08:08:19.153Z,23.56
2016-09-08T08:09:18.886Z,23.56
2016-09-08T08:10:18.822Z,23.55
2016-09-08T08:11:19.078Z,23.56
2016-09-08T08:12:19.209Z,23.5
2016-09-08T08:13:18.666Z,23.55
2016-09-08T08:14:18.583Z,23.48
2016-09-08T08:15:18.522Z,23.58
2016-09-08T08:16:18.485Z,23.55
2016-09-08T08:17:18.403Z,23.54
2016-09-08T08:18:18.658Z,23.5
2016-09-08T08:19:18.599Z,23.51
2016-09-08T08:20:18.836Z,23.48
2016-09-08T08:21:18.479Z,23.51
2016-09-08T08:22:18.134Z,23.55
2016-09-08T08:23:18.049Z,23.51
2016-09-08T08:24:18.017Z,23.54
2016-09-08T08:25:17.951Z,23.54
2016-09-08T08:26:17.873Z,23.54
2016-09-08T08:27:17.817Z,23.58
2016-09-08T08:28:18.064Z,23.46
2016-09-08T08:29:18.019Z,23.58
2016-09-08T08:30:17.644Z,23.48
2016-09-08T08:31:17.884Z,23.51
2016-09-08T08:32:17.535Z,23.55
2016-09-08T08:33:17.474Z,23.51
2016-09-08T08:34:17.708Z,23.54
2016-09-08T08:35:17.390Z,23.51
2016-09-08T08:36:17.292Z,23.46
2016-09-08T08:37:17.227Z,23.54
2016-09-08T08:38:17.190Z,23.51
2016-09-08T08:39:17.829Z,23.61
2016-09-08T08:40:17.675Z,23.56
2016-09-08T08:41:16.993Z,23.5
2016-09-08T08:42:17.347Z,23.48
2016-09-08T08:43:16.881Z,23.54
2016-09-08T08:44:16.814Z,23.48
2016-09-08T08:45:16.783Z,23.48
2016-09-08T08:46:17.014Z,23.56
2016-09-08T08:47:16.950Z,23.47
2016-09-08T08:48:16.592Z,23.56
2016-09-08T08:49:16.823Z,23.54
2016-09-08T08:50:16.482Z,23.56
2016-09-08T08:51:16.403Z,23.58
2016-09-08T08:52:16.361Z,23.58
2016-09-08T08:53:16.591Z,23.48
2016-09-08T08:54:16.528Z,23.51
2016-09-08T08:55:16.167Z,23.54
2016-09-08T08:56:16.409Z,23.48
2016-09-08T08:57:16.045Z,23.58
2016-09-08T08:58:15.984Z,23.48
2016-09-08T08:59:15.932Z,23.55
2016-09-08T09:00:15.870Z,23.58
2016-09-08T09:01:16.121Z,23.58
2016-09-08T09:02:15.750Z,23.48
2016-09-08T09:03:15.701Z,23.48
2016-09-08T09:04:15.646Z,23.5
2016-09-08T09:05:15.579Z,23.51
2016-09-08T09:06:15.519Z,23.5
2016-09-08T09:07:15.521Z,23.51
2016-09-08T09:08:15.736Z,23.58
2016-09-08T09:09:15.337Z,23.48
2016-09-08T09:10:15.285Z,23.61
2016-09-08T09:11:15.245Z,23.5
2016-09-08T09:12:15.474Z,23.58
2016-09-08T09:13:15.415Z,23.61
2016-09-08T09:14:15.052Z,23.54
2016-09-08T09:15:14.993Z,23.48
2016-09-08T09:16:15.244Z,23.51
2016-09-08T09:17:14.865Z,23.56
2016-09-08T09:18:14.820Z,23.51
2016-09-08T09:19:14.763Z,23.59
2016-09-08T09:20:14.686Z,23.59
2016-09-08T09:21:14.631Z,23.59
2016-09-08T09:22:14.574Z,23.61
2016-09-08T09:23:14.519Z,23.59
2016-09-08T09:24:14.460Z,23.61
2016-09-08T09:25:14.706Z,23.62
2016-09-08T09:26:14.344Z,23.55
2016-09-08T09:27:14.281Z,23.58
2016-09-08T09:28:14.219Z,23.59
2016-09-08T09:29:14.181Z,23.62
2016-09-08T09:30:14.114Z,23.56
2016-09-08T09:31:14.053Z,23.59
2016-09-08T09:32:14.293Z,23.58
2016-09-08T09:33:14.225Z,23.62
2016-09-08T09:34:13.863Z,23.66
2016-09-08T09:35:13.814Z,23.59
2016-09-08T09:36:14.063Z,23.62
2016-09-08T09:37:13.687Z,23.59
2016-09-08T09:38:13.633Z,23.63
2016-09-08T09:39:13.571Z,23.58
2016-09-08T09:40:13.507Z,23.58
2016-09-08T09:41:13.659Z,23.65
2016-09-08T09:42:13.709Z,23.55
2016-09-08T09:43:13.339Z,23.62
2016-09-08T09:44:13.281Z,23.58
2016-09-08T09:45:13.236Z,23.61
2016-09-08T09:46:13.173Z,23.58
2016-09-08T09:47:13.115Z,23.58
2016-09-08T09:48:13.048Z,23.61
2016-09-08T09:49:12.980Z,23.56
2016-09-08T09:50:12.935Z,23.58
2016-09-08T09:51:13.180Z,23.62
2016-09-08T09:52:12.805Z,23.65
2016-09-08T09:53:13.048Z,23.59
2016-09-08T09:54:12.686Z,23.62
2016-09-08T09:55:12.644Z,23.63
2016-09-08T09:56:12.578Z,23.59
2016-09-08T09:57:12.833Z,23.62
2016-09-08T09:58:12.465Z,23.59
2016-09-08T09:59:12.388Z,23.62
2016-09-08T10:00:12.339Z,23.58
2016-09-08T10:01:12.295Z,23.62
2016-09-08T10:02:12.531Z,23.66
2016-09-08T10:03:12.455Z,23.62
2016-09-08T10:04:12.096Z,23.62
2016-09-08T10:05:12.050Z,23.61
2016-09-08T10:06:11.983Z,23.59
2016-09-08T10:07:11.932Z,23.62
2016-09-08T10:08:11.868Z,23.63
2016-09-08T10:09:12.417Z,23.66
2016-09-08T10:10:11.753Z,23.62
2016-09-08T10:11:11.699Z,23.63
2016-09-08T10:12:11.644Z,23.65
2016-09-08T10:13:11.570Z,23.71
2016-09-08T10:14:11.525Z,23.62
2016-09-08T10:15:11.448Z,23.68
2016-09-08T10:16:11.696Z,23.62
2016-09-08T10:17:11.333Z,23.68
2016-09-08T10:18:11.276Z,23.66
2016-09-08T10:19:11.230Z,23.73
2016-09-08T10:20:19.778Z,23.69
2016-09-08T10:21:11.108Z,23.63
2016-09-08T10:22:11.048Z,23.68
2016-09-08T10:23:10.987Z,23.62
2016-09-08T10:24:10.917Z,23.69
2016-09-08T10:25:10.862Z,23.73
2016-09-08T10:26:11.466Z,23.69
2016-09-08T10:27:10.744Z,23.66
2016-09-08T10:28:10.986Z,23.63
2016-09-08T10:29:10.625Z,23.65
2016-09-08T10:30:10.563Z,23.71
2016-09-08T10:31:10.506Z,23.69
2016-09-08T10:32:10.446Z,23.66
2016-09-08T10:33:10.393Z,23.69
2016-09-08T10:34:10.668Z,23.65
2016-09-08T10:35:10.295Z,23.63
2016-09-08T10:36:10.831Z,23.74
2016-09-08T10:37:10.467Z,23.66
2016-09-08T10:38:10.094Z,23.71
2016-09-08T10:39:10.036Z,23.71
2016-09-08T10:40:10.298Z,23.68
2016-09-08T10:41:09.917Z,23.68
2016-09-08T10:42:09.854Z,23.69
2016-09-08T10:43:09.798Z,23.69
2016-09-08T10:44:09.744Z,23.69
2016-09-08T10:45:10.048Z,23.74
2016-09-08T10:46:09.627Z,23.68
2016-09-08T10:47:09.871Z,23.68
2016-09-08T10:48:09.816Z,23.76
2016-09-08T10:49:09.460Z,23.71
2016-09-08T10:50:10.026Z,23.76
2016-09-08T10:51:09.640Z,23.74
2016-09-08T10:52:09.283Z,23.76
2016-09-08T10:53:09.224Z,23.74
2016-09-08T10:54:09.460Z,23.66
2016-09-08T10:55:09.093Z,23.74
2016-09-08T10:56:09.043Z,23.71
2016-09-08T10:57:09.293Z,23.8
2016-09-08T10:58:08.916Z,23.78
2016-09-08T10:59:08.859Z,23.8
2016-09-08T11:00:08.802Z,23.78
2016-09-08T11:01:08.738Z,23.78
2016-09-08T11:02:08.694Z,23.84
2016-09-08T11:03:08.621Z,23.83
2016-09-08T11:04:08.872Z,23.86
2016-09-08T11:05:08.811Z,23.83
2016-09-08T11:06:08.448Z,23.83
2016-09-08T11:07:08.386Z,23.95
2016-09-08T11:08:08.347Z,23.84
2016-09-08T11:09:08.270Z,23.88
2016-09-08T11:10:08.219Z,23.86
2016-09-08T11:11:08.455Z,23.86
2016-09-08T11:12:08.090Z,23.93
2016-09-08T11:13:08.047Z,23.84
2016-09-08T11:14:07.998Z,23.92
2016-09-08T11:15:07.934Z,23.83
2016-09-08T11:16:07.859Z,23.87
2016-09-08T11:17:07.798Z,23.87
2016-09-08T11:18:08.057Z,23.93
2016-09-08T11:19:07.675Z,23.87
2016-09-08T11:20:07.633Z,23.88
2016-09-08T11:21:07.573Z,23.99
2016-09-08T11:22:07.525Z,23.86
2016-09-08T11:23:07.447Z,23.88
2016-09-08T11:24:07.390Z,23.84
2016-09-08T11:25:07.643Z,23.86
2016-09-08T11:26:07.600Z,23.93
2016-09-08T11:27:07.566Z,23.86
2016-09-08T11:28:07.162Z,23.87
2016-09-08T11:29:07.104Z,23.93
2016-09-08T11:30:07.296Z,23.95
2016-09-08T11:31:06.978Z,23.95
2016-09-08T11:32:06.930Z,23.99
2016-09-08T11:33:06.862Z,24.03
2016-09-08T11:34:07.103Z,23.96
2016-09-08T11:35:07.077Z,23.96
2016-09-08T11:36:06.698Z,24.03
2016-09-08T11:37:06.635Z,23.98
2016-09-08T11:38:06.897Z,23.96
2016-09-08T11:39:06.514Z,23.95
2016-09-08T11:40:06.458Z,24.06
2016-09-08T11:41:06.391Z,24.01
2016-09-08T11:42:06.641Z,23.99
2016-09-08T11:43:06.283Z,24.03
2016-09-08T11:44:06.240Z,24.02
2016-09-08T11:45:06.175Z,24.01
2016-09-08T11:46:06.449Z,24.05
2016-09-08T11:47:06.045Z,24.1
2016-09-08T11:48:06.286Z,24.03
2016-09-08T11:49:05.928Z,24.03
2016-09-08T11:50:06.259Z,23.99
2016-09-08T11:51:06.116Z,23.95
2016-09-08T11:52:05.793Z,24.01
2016-09-08T11:53:06.006Z,24.01
2016-09-08T11:54:05.944Z,23.95
2016-09-08T11:55:06.116Z,24.14
2016-09-08T11:56:05.900Z,24.08
2016-09-08T11:57:05.509Z,24.29
2016-09-08T11:58:05.663Z,24.36
2016-09-08T11:59:05.341Z,24.28
2016-09-08T12:00:05.324Z,24.23
2016-09-08T12:01:05.393Z,24.18
2016-09-08T12:02:05.516Z,24.13
2016-09-08T12:03:05.324Z,24.06
2016-09-08T12:04:05.058Z,24.11
2016-09-08T12:05:05.039Z,24.1
2016-09-08T12:06:05.229Z,24.1
2016-09-08T12:07:04.868Z,24.14
2016-09-08T12:08:04.816Z,24.14
2016-09-08T12:09:04.771Z,24.11
2016-09-08T12:10:05.202Z,24.13
2016-09-08T12:11:04.647Z,24.18
2016-09-08T12:12:05.091Z,24.18
2016-09-08T12:13:04.527Z,24.16
2016-09-08T12:14:04.469Z,24.17
2016-09-08T12:15:04.435Z,24.17
2016-09-08T12:16:04.356Z,24.23
2016-09-08T12:17:04.610Z,24.21
2016-09-08T12:18:04.227Z,24.21
2016-09-08T12:19:04.468Z,24.24
2016-09-08T12:20:04.113Z,24.28
2016-09-08T12:21:04.064Z,24.24
2016-09-08T12:22:04.612Z,24.23
2016-09-08T12:23:04.549Z,24.29
2016-09-08T12:24:04.194Z,24.28
2016-09-08T12:25:04.445Z,24.29
2016-09-08T12:26:04.072Z,24.21
2016-09-08T12:27:03.707Z,24.28
2016-09-08T12:28:03.964Z,24.28
2016-09-08T12:29:03.601Z,24.28
2016-09-08T12:30:03.534Z,24.29
2016-09-08T12:31:03.464Z,24.24
2016-09-08T12:32:03.427Z,24.3
2016-09-08T12:33:03.673Z,24.29
2016-09-08T12:34:03.290Z,24.39
2016-09-08T12:35:03.849Z,24.26
2016-09-08T12:36:03.173Z,24.26
2016-09-08T12:37:03.134Z,24.26
2016-09-08T12:38:03.259Z,24.3
2016-09-08T12:39:03.015Z,24.28
2016-09-08T12:40:03.249Z,24.3
2016-09-08T12:41:02.895Z,24.29
2016-09-08T12:42:02.829Z,24.32
2016-09-08T12:43:03.085Z,24.4
2016-09-08T12:44:03.020Z,24.38
2016-09-08T12:45:02.646Z,24.3
2016-09-08T12:46:02.899Z,24.39
2016-09-08T12:47:02.848Z,24.38
2016-09-08T12:48:02.809Z,24.38
2016-09-08T12:49:02.424Z,24.35
2016-09-08T12:50:02.663Z,24.39
2016-09-08T12:51:02.308Z,24.4
2016-09-08T12:52:02.545Z,24.38
2016-09-08T12:53:02.730Z,24.45
2016-09-08T12:54:02.477Z,24.43